Time;durP1;ratioP1;P1;durP2;ratioP2;P2;SDS_P1;SDS_P2;PMS_P1;PMS_P2;Temp;Humidity;BMP_temperature;BMP_pressure;BME280_temperature;BME280_humidity;BME280_pressure;Samples;Min_cycle;Max_cycle;Signal;HPM_P1;HPM_P2
2022/10/17 00:00:46;;;;;;;11.80;2.25;;;16.70;93.30;;;;;;5047095;28;20029;-60
2022/10/17 00:03:13;;;;;;;10.98;1.30;;;16.70;93.80;;;;;;5046373;28;20029;-60
2022/10/17 00:05:45;;;;;;;11.23;2.22;;;16.70;93.80;;;;;;5044704;28;20024;-60
2022/10/17 00:08:14;;;;;;;11.52;1.83;;;16.90;93.50;;;;;;5047382;28;20033;-60
2022/10/17 00:10:42;;;;;;;10.48;1.90;;;17.10;93.30;;;;;;5042721;28;20021;-59
2022/10/17 00:13:10;;;;;;;3.92;1.20;;;17.20;93.50;;;;;;5048537;28;20053;-60
2022/10/17 00:15:38;;;;;;;6.22;1.45;;;17.30;93.20;;;;;;5043502;28;20033;-61
2022/10/17 00:18:05;;;;;;;8.85;1.60;;;17.40;92.80;;;;;;5047173;28;20025;-61
2022/10/17 00:20:35;;;;;;;8.65;1.92;;;17.50;92.30;;;;;;5045138;28;20032;-60
2022/10/17 00:23:02;;;;;;;8.88;1.33;;;17.40;92.30;;;;;;5046731;28;20021;-60
2022/10/17 00:25:30;;;;;;;6.85;2.03;;;17.30;92.90;;;;;;5046853;28;20099;-60
2022/10/17 00:27:57;;;;;;;7.80;2.15;;;17.30;93.10;;;;;;5044169;28;20410;-59
2022/10/17 00:30:24;;;;;;;9.27;1.65;;;17.30;93.20;;;;;;5045567;28;20100;-60
2022/10/17 00:32:52;;;;;;;4.50;1.90;;;17.40;93.30;;;;;;5045199;28;20033;-60
2022/10/17 00:35:19;;;;;;;9.23;1.42;;;17.50;93.70;;;;;;5045818;28;20028;-60
2022/10/17 00:37:46;;;;;;;3.88;1.27;;;17.60;93.70;;;;;;5044060;28;20033;-60
2022/10/17 00:40:14;;;;;;;8.07;1.80;;;17.70;92.60;;;;;;5042120;28;20191;-62
2022/10/17 00:42:41;;;;;;;6.38;1.45;;;17.70;93.00;;;;;;5045278;28;20021;-60
2022/10/17 00:45:22;;;;;;;9.73;2.05;;;17.70;92.50;;;;;;5051021;28;20025;-60
2022/10/17 00:48:00;;;;;;;8.18;2.47;;;17.70;93.20;;;;;;5058438;28;20021;-58
2022/10/17 00:50:28;;;;;;;11.38;2.85;;;17.60;93.20;;;;;;5047910;28;20021;-59
2022/10/17 00:53:00;;;;;;;8.27;1.35;;;17.60;93.40;;;;;;5045010;28;20040;-59
2022/10/17 00:55:32;;;;;;;7.40;1.77;;;17.50;93.20;;;;;;5046344;28;20060;-59
2022/10/17 00:58:02;;;;;;;5.90;1.30;;;17.50;93.10;;;;;;5050176;28;20067;-58
2022/10/17 01:00:31;;;;;;;7.15;2.65;;;17.40;93.60;;;;;;5045609;28;20499;-59
2022/10/17 01:02:59;;;;;;;7.45;2.03;;;17.30;93.80;;;;;;5055187;28;20052;-60
2022/10/17 01:05:26;;;;;;;8.15;1.52;;;17.30;94.30;;;;;;5049991;28;20025;-59
2022/10/17 01:07:54;;;;;;;6.22;1.25;;;17.20;94.30;;;;;;5048457;28;20044;-60
2022/10/17 01:10:24;;;;;;;7.68;1.25;;;17.10;94.90;;;;;;5052681;28;20103;-59
2022/10/17 01:13:16;;;;;;;7.53;1.60;;;17.20;95.00;;;;;;5051489;28;20036;-59
2022/10/17 01:15:43;;;;;;;7.00;1.58;;;17.30;94.90;;;;;;5049458;28;20044;-59
2022/10/17 01:18:40;;;;;;;3.58;1.30;;;17.40;94.30;;;;;;5050506;28;20032;-59
2022/10/17 01:21:28;;;;;;;8.52;2.00;;;17.60;94.30;;;;;;5050054;28;20063;-59
2022/10/17 01:24:25;;;;;;;7.95;2.30;;;17.70;94.40;;;;;;5048537;28;20071;-60
2022/10/17 01:27:10;;;;;;;11.23;3.00;;;17.80;94.70;;;;;;5049835;28;20025;-61
2022/10/17 01:30:04;;;;;;;8.43;1.75;;;18.10;94.80;;;;;;5048952;28;20113;-60
2022/10/17 01:32:39;;;;;;;10.88;2.85;;;18.20;93.80;;;;;;5049090;28;20040;-59
2022/10/17 01:35:12;;;;;;;15.85;3.55;;;18.40;92.10;;;;;;5052788;28;20024;-60
2022/10/17 01:37:49;;;;;;;12.48;2.78;;;18.80;92.00;;;;;;5051859;28;20024;-59
2022/10/17 01:40:46;;;;;;;9.15;1.83;;;19.10;91.30;;;;;;5050108;28;20465;-61
2022/10/17 01:43:28;;;;;;;8.82;1.67;;;19.60;90.70;;;;;;5030976;28;20112;-60
2022/10/17 01:46:06;;;;;;;9.45;2.47;;;20.00;87.70;;;;;;5046433;28;20029;-59
2022/10/17 01:48:37;;;;;;;7.68;1.35;;;20.30;85.00;;;;;;5046960;28;20037;-59
2022/10/17 01:51:30;;;;;;;8.98;2.00;;;20.50;84.40;;;;;;5048222;28;20036;-59
2022/10/17 01:54:21;;;;;;;9.27;1.52;;;20.40;84.40;;;;;;5049348;28;20025;-60
2022/10/17 01:56:52;;;;;;;6.38;1.73;;;20.50;84.50;;;;;;5047780;28;20029;-59
2022/10/17 01:59:24;;;;;;;10.68;2.38;;;20.30;84.00;;;;;;5048120;28;20382;-59
2022/10/17 02:01:54;;;;;;;9.10;1.60;;;20.20;82.70;;;;;;5050886;28;20025;-59
2022/10/17 02:04:22;;;;;;;8.05;1.75;;;19.80;84.80;;;;;;5048612;28;20103;-58
2022/10/17 02:06:49;;;;;;;6.93;1.23;;;19.40;84.80;;;;;;5050546;28;20017;-59
2022/10/17 02:09:19;;;;;;;12.55;1.90;;;19.10;85.30;;;;;;5049249;28;20137;-61
2022/10/17 02:12:10;;;;;;;10.35;2.55;;;18.90;86.20;;;;;;5046272;28;20025;-60
2022/10/17 02:14:45;;;;;;;11.13;1.95;;;18.60;88.60;;;;;;5048743;28;20025;-59
2022/10/17 02:17:23;;;;;;;;;;;18.20;91.40;;;;;;5049876;28;20377;-58
2022/10/17 02:19:59;;;;;;;7.07;1.50;;;17.80;95.00;;;;;;5051004;28;20357;-58
2022/10/17 02:22:39;;;;;;;5.70;1.90;;;17.50;96.40;;;;;;5045971;28;20025;-58
2022/10/17 02:25:13;;;;;;;4.35;1.38;;;17.50;97.70;;;;;;5072446;28;20029;-58
2022/10/17 02:27:43;;;;;;;;;;;17.40;98.80;;;;;;5046446;28;20036;-59
2022/10/17 02:30:48;;;;;;;8.35;2.15;;;17.40;98.10;;;;;;5050238;28;19978;-59
2022/10/17 02:33:27;;;;;;;8.82;2.20;;;17.30;98.40;;;;;;5050432;28;20085;-58
2022/10/17 02:35:59;;;;;;;10.65;1.80;;;17.30;99.20;;;;;;5059601;28;20036;-60
2022/10/17 02:38:29;;;;;;;10.60;2.13;;;17.40;99.00;;;;;;5050311;28;20048;-57
2022/10/17 02:40:58;;;;;;;11.82;1.90;;;17.50;99.60;;;;;;5057048;28;20029;-58
2022/10/17 02:43:25;;;;;;;9.82;1.55;;;17.60;99.10;;;;;;5055650;28;20013;-59
2022/10/17 02:45:53;;;;;;;9.25;1.60;;;17.70;98.80;;;;;;5059212;28;20420;-63
2022/10/17 02:48:23;;;;;;;5.57;1.38;;;17.80;97.90;;;;;;5064123;28;20368;-59
2022/10/17 02:51:00;;;;;;;11.73;2.88;;;17.80;97.60;;;;;;5054238;28;20033;-59
2022/10/17 02:53:52;;;;;;;6.80;1.77;;;18.00;96.30;;;;;;5047967;28;20024;-59
2022/10/17 02:56:21;;;;;;;4.55;1.95;;;18.20;95.30;;;;;;5060134;28;20028;-59
2022/10/17 02:58:57;;;;;;;8.45;1.30;;;18.30;94.50;;;;;;5058701;28;20032;-58
2022/10/17 03:01:24;;;;;;;7.57;1.83;;;18.40;93.80;;;;;;5045091;28;20139;-60
2022/10/17 03:04:03;;;;;;;5.95;1.63;;;18.70;92.30;;;;;;5046777;28;20039;-61
2022/10/17 03:06:30;;;;;;;5.15;1.40;;;18.90;92.80;;;;;;5050334;28;20024;-60
2022/10/17 03:08:58;;;;;;;3.92;1.70;;;19.30;90.60;;;;;;5053029;28;20430;-60
2022/10/17 03:11:25;;;;;;;10.30;1.63;;;19.50;91.40;;;;;;5046679;28;20032;-61
2022/10/17 03:13:52;;;;;;;6.28;1.02;;;19.70;90.00;;;;;;5057056;28;20039;-62
2022/10/17 03:16:19;;;;;;;4.03;0.90;;;19.90;80.70;;;;;;5056094;28;20107;-60
2022/10/17 03:18:47;;;;;;;9.63;2.25;;;19.90;80.20;;;;;;5049096;28;20082;-62
2022/10/17 03:21:14;;;;;;;4.93;1.25;;;19.90;81.20;;;;;;5057734;28;20020;-62
2022/10/17 03:23:41;;;;;;;6.43;1.20;;;20.10;81.80;;;;;;5068450;28;20020;-62
2022/10/17 03:26:12;;;;;;;8.82;1.85;;;20.30;77.90;;;;;;5055214;28;20032;-61
2022/10/17 03:28:39;;;;;;;5.40;1.20;;;20.20;78.40;;;;;;5038062;28;20033;-59
2022/10/17 03:31:12;;;;;;;4.90;1.77;;;20.20;78.20;;;;;;5045580;28;20032;-58
2022/10/17 03:33:40;;;;;;;6.53;1.60;;;20.10;76.60;;;;;;5056685;28;20032;-60
2022/10/17 03:36:12;;;;;;;8.50;1.90;;;19.90;77.60;;;;;;5065983;28;20020;-59
2022/10/17 03:38:41;;;;;;;9.27;1.80;;;20.00;77.00;;;;;;5067470;28;20020;-60
2022/10/17 03:41:09;;;;;;;7.60;1.30;;;20.00;76.60;;;;;;5040190;28;20084;-59
2022/10/17 03:43:36;;;;;;;6.90;1.35;;;20.00;75.80;;;;;;5058861;28;20025;-59
2022/10/17 03:46:13;;;;;;;7.40;1.65;;;20.20;76.40;;;;;;5050416;28;20017;-61
2022/10/17 03:48:40;;;;;;;7.97;1.00;;;20.40;75.40;;;;;;5041268;28;20033;-60
2022/10/17 03:51:09;;;;;;;4.68;1.73;;;20.40;72.30;;;;;;5067547;28;20093;-60
2022/10/17 03:53:36;;;;;;;4.10;1.25;;;20.40;70.30;;;;;;5061894;28;20025;-60
2022/10/17 03:56:23;;;;;;;5.07;1.00;;;20.60;70.70;;;;;;5057116;28;20023;-61
2022/10/17 03:58:51;;;;;;;5.45;1.10;;;21.10;72.10;;;;;;5046539;28;20021;-59
2022/10/17 04:01:19;;;;;;;6.50;1.50;;;21.20;70.80;;;;;;5063574;28;20017;-60
2022/10/17 04:03:54;;;;;;;9.65;1.70;;;20.80;72.20;;;;;;5060363;28;20493;-60
2022/10/17 04:06:22;;;;;;;5.32;1.23;;;20.40;72.30;;;;;;5049387;28;20037;-60
2022/10/17 04:08:49;;;;;;;6.78;1.38;;;20.20;74.90;;;;;;5049444;28;20124;-61
2022/10/17 04:11:19;;;;;;;7.60;0.98;;;20.10;75.00;;;;;;5065561;28;20024;-60
2022/10/17 04:13:46;;;;;;;6.85;2.28;;;20.00;75.20;;;;;;5059516;28;20573;-61
2022/10/17 04:16:16;;;;;;;5.25;1.35;;;19.90;75.30;;;;;;5056123;28;20132;-60
2022/10/17 04:18:44;;;;;;;7.93;1.80;;;19.90;76.10;;;;;;5052409;28;20021;-60
2022/10/17 04:21:13;;;;;;;8.25;1.30;;;19.90;75.10;;;;;;5050763;28;20024;-59
2022/10/17 04:23:40;;;;;;;7.72;1.38;;;19.80;75.70;;;;;;5049594;28;20417;-60
2022/10/17 04:26:07;;;;;;;10.25;1.50;;;19.60;75.80;;;;;;5044081;28;20111;-59
2022/10/17 04:28:36;;;;;;;4.45;1.33;;;19.50;77.20;;;;;;5042837;28;20068;-61
2022/10/17 04:31:11;;;;;;;5.97;1.33;;;19.50;76.60;;;;;;5043041;28;20013;-61
2022/10/17 04:33:38;;;;;;;6.28;1.00;;;19.40;77.10;;;;;;5051162;28;20032;-62
2022/10/17 04:36:09;;;;;;;4.28;1.10;;;19.50;79.10;;;;;;5052772;28;20024;-61
2022/10/17 04:38:37;;;;;;;7.00;1.48;;;19.30;78.60;;;;;;5051119;28;20430;-61
2022/10/17 04:41:07;;;;;;;7.30;2.17;;;19.30;78.80;;;;;;5048175;28;20025;-60
2022/10/17 04:43:37;;;;;;;6.78;1.42;;;19.10;78.90;;;;;;5056852;28;20048;-59
2022/10/17 04:46:07;;;;;;;8.38;1.17;;;18.80;79.90;;;;;;5053594;28;20108;-62
2022/10/17 04:48:35;;;;;;;5.80;1.95;;;18.60;81.10;;;;;;5051405;28;22109;-61
2022/10/17 04:51:09;;;;;;;4.85;1.40;;;18.50;81.40;;;;;;5056344;28;20045;-62
2022/10/17 04:53:41;;;;;;;7.30;1.90;;;18.30;82.30;;;;;;5044554;28;20436;-62
2022/10/17 04:56:20;;;;;;;3.70;1.23;;;18.30;83.00;;;;;;5049807;28;20078;-62
2022/10/17 04:58:51;;;;;;;7.25;1.25;;;18.30;84.00;;;;;;5065671;28;20063;-62
2022/10/17 05:01:21;;;;;;;5.88;1.98;;;18.10;83.40;;;;;;5057336;28;20020;-62
2022/10/17 05:03:48;;;;;;;6.68;2.08;;;18.10;83.70;;;;;;5051996;28;20061;-62
2022/10/17 05:06:21;;;;;;;5.05;1.08;;;18.00;84.80;;;;;;5046209;28;20033;-62
2022/10/17 05:08:49;;;;;;;11.18;1.75;;;18.00;84.60;;;;;;5048694;28;20123;-61
2022/10/17 05:11:22;;;;;;;6.55;1.00;;;18.00;85.10;;;;;;5064925;28;20024;-62
2022/10/17 05:13:55;;;;;;;6.10;1.13;;;18.00;85.90;;;;;;5062261;28;20029;-63
2022/10/17 05:16:23;;;;;;;6.32;1.27;;;18.00;84.60;;;;;;5051608;28;20021;-62
2022/10/17 05:18:52;;;;;;;3.78;0.90;;;17.90;85.40;;;;;;5051874;28;20053;-62
2022/10/17 05:21:20;;;;;;;8.75;1.70;;;18.00;84.30;;;;;;5058217;28;20027;-62
2022/10/17 05:23:47;;;;;;;11.15;3.10;;;17.90;84.20;;;;;;5051557;28;20035;-63
2022/10/17 05:26:15;;;;;;;5.85;1.17;;;18.00;85.10;;;;;;5059601;28;20028;-62
2022/10/17 05:28:42;;;;;;;6.95;1.10;;;18.00;85.30;;;;;;5050179;28;20585;-61
2022/10/17 05:31:11;;;;;;;7.93;1.52;;;18.00;84.70;;;;;;5068540;28;20048;-62
2022/10/17 05:33:39;;;;;;;9.77;2.00;;;18.00;83.90;;;;;;5063095;28;20029;-62
2022/10/17 05:36:08;;;;;;;5.45;1.52;;;18.00;83.90;;;;;;5053568;28;20020;-61
2022/10/17 05:38:35;;;;;;;8.48;0.90;;;18.10;84.10;;;;;;5053025;28;20028;-62
2022/10/17 05:41:05;;;;;;;5.18;1.17;;;18.10;83.70;;;;;;5066645;28;20055;-61
2022/10/17 05:43:34;;;;;;;7.25;1.42;;;18.10;83.00;;;;;;5048942;28;20060;-61
2022/10/17 05:46:05;;;;;;;6.78;1.15;;;18.20;82.90;;;;;;5061429;28;20355;-62
2022/10/17 05:48:33;;;;;;;13.75;2.33;;;18.30;82.70;;;;;;5054054;28;20037;-61
2022/10/17 05:51:03;;;;;;;7.45;1.30;;;18.30;82.80;;;;;;5053504;28;20048;-61
2022/10/17 05:53:33;;;;;;;11.00;1.70;;;18.20;82.90;;;;;;5063556;28;20135;-61
2022/10/17 05:56:03;;;;;;;5.63;1.20;;;18.30;82.60;;;;;;5056087;28;20600;-62
2022/10/17 05:58:34;;;;;;;8.75;1.52;;;18.30;83.80;;;;;;5048318;28;20037;-62
2022/10/17 06:01:05;;;;;;;7.90;0.98;;;18.50;82.70;;;;;;5047170;28;20036;-62
2022/10/17 06:03:33;;;;;;;8.18;1.48;;;18.50;82.80;;;;;;5050256;28;20490;-62
2022/10/17 06:06:11;;;;;;;5.75;0.98;;;18.40;82.10;;;;;;5048031;28;20029;-61
2022/10/17 06:08:38;;;;;;;7.78;1.20;;;18.40;83.10;;;;;;5055598;28;20033;-62
2022/10/17 06:11:06;;;;;;;8.55;1.40;;;18.40;83.40;;;;;;5056929;28;20091;-61
2022/10/17 06:13:34;;;;;;;4.93;1.30;;;18.50;82.40;;;;;;5054795;28;20059;-61
2022/10/17 06:16:07;;;;;;;3.92;1.13;;;18.60;83.50;;;;;;5043079;28;20527;-62
2022/10/17 06:18:35;;;;;;;6.43;1.30;;;18.40;82.20;;;;;;5056920;28;20056;-63
2022/10/17 06:21:04;;;;;;;5.65;1.00;;;18.40;82.30;;;;;;5049994;28;20086;-62
2022/10/17 06:23:32;;;;;;;8.15;1.40;;;18.20;83.30;;;;;;5040838;28;20029;-62
2022/10/17 06:26:01;;;;;;;7.03;1.23;;;18.10;83.50;;;;;;5050762;28;20024;-65
2022/10/17 06:28:28;;;;;;;5.78;1.05;;;18.00;84.20;;;;;;5050386;28;20044;-61
2022/10/17 06:30:56;;;;;;;4.57;1.27;;;18.00;85.00;;;;;;5050953;28;20551;-61
2022/10/17 06:33:23;;;;;;;4.25;1.27;;;17.90;85.30;;;;;;5050075;28;20742;-60
2022/10/17 06:36:00;;;;;;;8.00;1.13;;;18.00;85.50;;;;;;5051463;28;20021;-61
2022/10/17 06:38:27;;;;;;;6.13;1.05;;;18.00;85.30;;;;;;5048412;28;20032;-62
2022/10/17 06:40:56;;;;;;;4.28;1.65;;;17.90;85.30;;;;;;5052498;28;20039;-62
2022/10/17 06:43:26;;;;;;;8.60;1.30;;;17.80;85.00;;;;;;5051665;28;20017;-62
2022/10/17 06:45:56;;;;;;;10.80;2.00;;;17.70;85.60;;;;;;5049652;28;20460;-62
2022/10/17 06:48:27;;;;;;;11.82;1.20;;;17.60;85.90;;;;;;5051204;28;20024;-63
2022/10/17 06:51:00;;;;;;;3.45;0.90;;;17.50;85.60;;;;;;5052179;28;20502;-61
2022/10/17 06:53:29;;;;;;;6.05;0.98;;;17.50;86.10;;;;;;5046470;28;20021;-61
2022/10/17 06:56:05;;;;;;;9.43;1.17;;;17.50;86.10;;;;;;5050363;28;20013;-62
2022/10/17 06:58:40;;;;;;;5.22;1.40;;;17.60;86.40;;;;;;5050816;28;20111;-62
2022/10/17 07:01:10;;;;;;;8.07;1.92;;;17.60;86.40;;;;;;5050830;28;20024;-61
2022/10/17 07:03:42;;;;;;;4.32;1.20;;;17.60;86.00;;;;;;5047131;28;20036;-62
2022/10/17 07:06:16;;;;;;;10.52;1.17;;;17.70;85.90;;;;;;5044818;28;20021;-62
2022/10/17 07:08:49;;;;;;;5.25;0.82;;;17.60;85.90;;;;;;5048474;28;20551;-62
2022/10/17 07:11:25;;;;;;;4.00;1.35;;;17.50;86.00;;;;;;5046444;28;20032;-61
2022/10/17 07:13:53;;;;;;;4.30;1.45;;;17.40;86.70;;;;;;5072719;28;20395;-62
2022/10/17 07:16:20;;;;;;;7.45;1.17;;;17.20;87.30;;;;;;5050350;28;20025;-62
2022/10/17 07:18:53;;;;;;;7.40;1.20;;;17.10;88.20;;;;;;5051054;28;20025;-62
2022/10/17 07:21:21;;;;;;;6.50;1.33;;;17.00;88.70;;;;;;5055235;28;20044;-62
2022/10/17 07:23:48;;;;;;;3.05;0.90;;;16.90;88.60;;;;;;5057812;28;20021;-61
2022/10/17 07:26:17;;;;;;;6.07;1.13;;;16.90;88.70;;;;;;5053332;28;20025;-62
2022/10/17 07:28:46;;;;;;;7.20;1.20;;;16.90;88.60;;;;;;5049174;28;20041;-63
2022/10/17 07:31:16;;;;;;;5.00;1.23;;;16.80;88.90;;;;;;5051576;28;20103;-62
2022/10/17 07:33:44;;;;;;;5.30;1.63;;;16.80;88.90;;;;;;5053554;28;20020;-62
2022/10/17 07:36:13;;;;;;;5.47;0.82;;;16.70;89.20;;;;;;5059561;28;20074;-62
2022/10/17 07:38:41;;;;;;;6.60;1.02;;;16.60;89.60;;;;;;5044343;28;20033;-65
2022/10/17 07:41:10;;;;;;;6.75;1.48;;;16.50;89.70;;;;;;5064878;28;20065;-61
2022/10/17 07:43:38;;;;;;;4.82;1.08;;;16.50;90.10;;;;;;5045008;28;20036;-63
2022/10/17 07:46:10;;;;;;;8.27;1.25;;;16.40;90.30;;;;;;5056665;28;20035;-63
2022/10/17 07:48:39;;;;;;;5.57;1.65;;;16.30;90.60;;;;;;5042483;28;20179;-62
2022/10/17 07:51:07;;;;;;;5.07;1.10;;;16.20;90.50;;;;;;5052075;28;20033;-62
2022/10/17 07:53:48;;;;;;;5.75;1.75;;;16.10;90.70;;;;;;5048000;28;20032;-62
2022/10/17 07:56:28;;;;;;;5.07;1.02;;;16.10;91.00;;;;;;5042597;28;20075;-62
2022/10/17 07:58:56;;;;;;;9.40;2.13;;;15.90;91.20;;;;;;5051717;28;20025;-63
2022/10/17 08:01:24;;;;;;;15.27;1.50;;;15.90;91.40;;;;;;5046712;28;20018;-62
2022/10/17 08:03:52;;;;;;;4.47;0.88;;;15.90;91.50;;;;;;5046028;28;20025;-61
2022/10/17 08:06:19;;;;;;;4.55;2.10;;;15.80;91.70;;;;;;5045875;28;20112;-62
2022/10/17 08:08:46;;;;;;;3.63;1.00;;;15.70;92.00;;;;;;5047153;28;20033;-63
2022/10/17 08:11:15;;;;;;;10.50;2.35;;;15.70;92.20;;;;;;5048309;28;20054;-62
2022/10/17 08:13:42;;;;;;;7.55;1.40;;;15.60;92.50;;;;;;5044758;28;20373;-62
2022/10/17 08:16:12;;;;;;;6.95;1.33;;;15.60;93.00;;;;;;5043459;28;20027;-69
2022/10/17 08:18:42;;;;;;;7.32;1.50;;;15.50;93.30;;;;;;5046036;28;20032;-66
2022/10/17 08:21:11;;;;;;;7.55;1.02;;;15.40;93.50;;;;;;5044470;28;20028;-66
2022/10/17 08:23:39;;;;;;;3.53;1.30;;;15.40;94.10;;;;;;5036150;28;20025;-65
2022/10/17 08:26:09;;;;;;;9.77;1.38;;;15.30;94.30;;;;;;5056814;28;20024;-63
2022/10/17 08:28:38;;;;;;;5.22;0.98;;;15.30;94.90;;;;;;5049079;28;20044;-62
2022/10/17 08:31:11;;;;;;;3.72;1.08;;;15.20;94.90;;;;;;5051871;28;20050;-62
2022/10/17 08:33:39;;;;;;;4.90;1.20;;;15.10;95.40;;;;;;5045537;28;20051;-63
2022/10/17 08:36:07;;;;;;;9.55;1.67;;;15.00;96.10;;;;;;5046963;28;20013;-62
2022/10/17 08:38:36;;;;;;;5.20;1.52;;;14.90;96.60;;;;;;5051468;28;20032;-66
2022/10/17 08:41:18;;;;;;;10.93;1.52;;;15.00;96.80;;;;;;5051202;28;20050;-66
2022/10/17 08:43:58;;;;;;;4.43;1.17;;;15.00;96.90;;;;;;5047890;28;20039;-65
2022/10/17 08:46:37;;;;;;;15.07;1.30;;;15.20;96.50;;;;;;5045572;28;20028;-67
2022/10/17 08:49:12;;;;;;;4.18;1.13;;;15.30;96.30;;;;;;5047154;28;20482;-65
2022/10/17 08:51:48;;;;;;;9.57;1.90;;;15.40;96.20;;;;;;5045845;28;20057;-66
2022/10/17 08:54:51;;;;;;;6.00;1.35;;;15.50;96.00;;;;;;5050249;28;20021;-66
2022/10/17 08:57:21;;;;;;;10.88;1.30;;;15.50;95.90;;;;;;5014758;28;20037;-66
2022/10/17 08:59:53;;;;;;;7.38;1.52;;;15.60;95.90;;;;;;5042860;28;20049;-65
2022/10/17 09:02:49;;;;;;;8.10;1.05;;;15.60;95.90;;;;;;5061950;28;20072;-67
2022/10/17 09:05:51;;;;;;;7.80;1.38;;;15.60;96.20;;;;;;5043377;28;20047;-66
2022/10/17 09:08:32;;;;;;;6.10;1.60;;;15.70;95.90;;;;;;5041879;28;20032;-68
2022/10/17 09:11:32;;;;;;;9.27;1.30;;;15.70;96.00;;;;;;5039020;28;20120;-66
2022/10/17 09:14:17;;;;;;;4.60;1.63;;;15.70;96.00;;;;;;5035245;28;20061;-66
2022/10/17 09:17:24;;;;;;;8.57;1.20;;;15.70;96.00;;;;;;5044089;28;21897;-65
2022/10/17 09:20:09;;;;;;;5.93;1.30;;;15.80;96.30;;;;;;5045539;28;20036;-67
2022/10/17 09:23:01;;;;;;;;;;;15.80;96.20;;;;;;5043870;28;20029;-65
2022/10/17 09:25:40;;;;;;;12.90;2.13;;;15.80;96.20;;;;;;5043882;28;19916;-66
2022/10/17 09:28:13;;;;;;;11.52;1.52;;;15.80;96.10;;;;;;5051487;28;20116;-66
2022/10/17 09:30:46;;;;;;;9.63;1.33;;;15.80;96.20;;;;;;5052380;28;20060;-67
2022/10/17 09:33:21;;;;;;;11.55;1.75;;;15.80;96.30;;;;;;5044069;28;20677;-64
2022/10/17 09:35:50;;;;;;;4.45;1.25;;;15.80;96.30;;;;;;5058365;28;20037;-66
2022/10/17 09:38:21;;;;;;;10.00;1.38;;;15.80;96.40;;;;;;5054592;28;20053;-66
2022/10/17 09:41:14;;;;;;;7.50;1.33;;;15.80;96.20;;;;;;5051921;28;20082;-66
2022/10/17 09:43:46;;;;;;;5.43;1.42;;;15.80;96.10;;;;;;5056912;28;20051;-66
2022/10/17 09:46:39;;;;;;;9.13;1.30;;;15.80;96.00;;;;;;5062768;28;20021;-65
2022/10/17 09:49:18;;;;;;;7.40;1.55;;;15.80;95.90;;;;;;5051641;28;20059;-66
2022/10/17 09:51:48;;;;;;;6.88;1.50;;;15.80;96.10;;;;;;5056705;28;20127;-65
2022/10/17 09:54:24;;;;;;;2.33;0.88;;;15.90;96.00;;;;;;5054933;28;20616;-67
2022/10/17 09:57:18;;;;;;;5.15;1.27;;;15.80;96.10;;;;;;5052108;28;20095;-67
2022/10/17 10:00:05;;;;;;;10.30;1.57;;;15.80;96.30;;;;;;5050056;28;20670;-66
2022/10/17 10:02:38;;;;;;;9.25;1.85;;;15.80;96.10;;;;;;5052653;28;20285;-67
2022/10/17 10:05:16;;;;;;;6.07;2.03;;;15.80;96.20;;;;;;5054320;28;20029;-66
2022/10/17 10:08:00;;;;;;;7.00;1.65;;;15.80;96.20;;;;;;5056430;28;20115;-65
2022/10/17 10:10:29;;;;;;;9.32;1.58;;;15.80;96.20;;;;;;5054949;28;20055;-64
2022/10/17 10:13:14;;;;;;;8.43;1.85;;;15.80;96.20;;;;;;5054295;28;20132;-64
2022/10/17 10:15:42;;;;;;;;;;;15.80;96.00;;;;;;5056647;28;20043;-62
2022/10/17 10:18:35;;;;;;;5.63;2.60;;;15.80;96.20;;;;;;5050496;28;19913;-61
2022/10/17 10:21:16;;;;;;;9.20;1.35;;;15.80;96.20;;;;;;5061990;28;20028;-62
2022/10/17 10:24:05;;;;;;;9.57;2.25;;;15.80;96.00;;;;;;5038026;28;20086;-62
2022/10/17 10:26:38;;;;;;;5.15;1.33;;;15.70;96.00;;;;;;5048663;28;20040;-62
2022/10/17 10:29:21;;;;;;;10.37;1.60;;;15.70;96.00;;;;;;5063234;28;20405;-62
2022/10/17 10:31:50;;;;;;;4.72;1.10;;;15.80;95.90;;;;;;5050026;28;20277;-63
2022/10/17 10:34:28;;;;;;;7.80;1.20;;;15.70;95.90;;;;;;5059181;28;20067;-63
2022/10/17 10:37:15;;;;;;;14.77;1.65;;;15.70;95.90;;;;;;5050880;28;20040;-62
2022/10/17 10:39:59;;;;;;;7.15;0.95;;;15.70;95.90;;;;;;5061656;28;20221;-63
2022/10/17 10:42:34;;;;;;;9.27;1.75;;;15.70;96.00;;;;;;5042717;28;20130;-65
2022/10/17 10:45:17;;;;;;;4.32;1.20;;;15.70;96.20;;;;;;5046458;28;20458;-64
2022/10/17 10:48:02;;;;;;;6.95;1.27;;;15.70;96.10;;;;;;5044875;28;20478;-64
2022/10/17 10:50:54;;;;;;;5.07;1.30;;;15.70;96.00;;;;;;5041503;28;20116;-67
2022/10/17 10:53:44;;;;;;;6.85;1.10;;;15.60;96.20;;;;;;5041672;28;20029;-65
2022/10/17 10:56:17;;;;;;;6.22;1.20;;;15.60;96.30;;;;;;5041445;28;20045;-65
2022/10/17 10:59:03;;;;;;;6.95;1.30;;;15.60;96.50;;;;;;5038121;28;20393;-65
2022/10/17 11:01:48;;;;;;;4.30;0.90;;;15.60;96.50;;;;;;5045727;28;20226;-65
2022/10/17 11:04:40;;;;;;;12.60;1.77;;;15.60;96.20;;;;;;5057212;28;20036;-65
2022/10/17 11:07:21;;;;;;;8.63;1.35;;;15.60;96.40;;;;;;5049391;28;20489;-66
2022/10/17 11:10:10;;;;;;;6.20;1.10;;;15.60;96.30;;;;;;5053609;28;20051;-66
2022/10/17 11:13:00;;;;;;;7.53;1.98;;;15.60;96.20;;;;;;5044433;28;20055;-66
2022/10/17 11:16:00;;;;;;;4.63;1.33;;;15.60;96.20;;;;;;5043613;28;20044;-67
2022/10/17 11:18:38;;;;;;;9.35;1.38;;;15.60;96.20;;;;;;5041615;28;20033;-65
2022/10/17 11:21:48;;;;;;;5.43;1.00;;;15.60;96.30;;;;;;5044145;28;20067;-66
2022/10/17 11:24:27;;;;;;;13.82;2.17;;;15.60;96.50;;;;;;5030104;28;20576;-66
2022/10/17 11:27:05;;;;;;;4.80;1.35;;;15.60;96.60;;;;;;5043898;28;20048;-65
2022/10/17 11:29:37;;;;;;;11.13;1.30;;;15.60;96.60;;;;;;5042522;28;20053;-65
2022/10/17 11:32:12;;;;;;;8.15;0.95;;;15.50;96.70;;;;;;5065177;28;20052;-65
2022/10/17 11:34:50;;;;;;;6.90;1.88;;;15.50;96.70;;;;;;5043884;28;20071;-65
2022/10/17 11:37:29;;;;;;;7.93;0.95;;;15.50;96.80;;;;;;5050290;28;20529;-65
2022/10/17 11:40:02;;;;;;;3.65;1.50;;;15.50;96.90;;;;;;5063142;28;20032;-65
2022/10/17 11:42:35;;;;;;;8.27;1.50;;;15.40;97.00;;;;;;5043468;28;20021;-62
2022/10/17 11:45:13;;;;;;;5.40;1.38;;;15.40;97.20;;;;;;5051597;28;20114;-64
2022/10/17 11:47:47;;;;;;;9.70;1.75;;;15.40;97.40;;;;;;5060847;28;20036;-64
2022/10/17 11:50:30;;;;;;;9.50;1.00;;;15.40;97.40;;;;;;5044258;28;20037;-65
2022/10/17 11:53:03;;;;;;;4.40;1.23;;;15.40;97.60;;;;;;5063009;28;20021;-65
2022/10/17 11:55:33;;;;;;;4.53;1.63;;;15.30;97.70;;;;;;5050661;28;20401;-65
2022/10/17 11:58:24;;;;;;;8.00;1.15;;;15.30;97.90;;;;;;5046235;28;20025;-65
2022/10/17 12:00:57;;;;;;;4.20;1.00;;;15.20;98.30;;;;;;5048031;28;20047;-63
2022/10/17 12:04:00;;;;;;;7.78;1.23;;;15.20;98.30;;;;;;5051237;28;20412;-63
2022/10/17 12:06:55;;;;;;;4.35;1.00;;;15.20;98.20;;;;;;5038294;28;20021;-64
2022/10/17 12:09:44;;;;;;;6.07;1.15;;;15.20;98.30;;;;;;5049755;28;20032;-63
2022/10/17 12:12:27;;;;;;;5.85;1.13;;;15.10;98.50;;;;;;5043406;28;20025;-64
2022/10/17 12:15:13;;;;;;;5.47;1.05;;;15.10;98.60;;;;;;5045562;28;20151;-65
2022/10/17 12:18:03;;;;;;;8.18;1.70;;;15.20;98.60;;;;;;5060500;28;20024;-63
2022/10/17 12:20:33;;;;;;;7.95;1.30;;;15.20;98.70;;;;;;5055954;28;20074;-64
2022/10/17 12:23:12;;;;;;;3.22;0.85;;;15.10;99.10;;;;;;5078462;28;20253;-64
2022/10/17 12:25:52;;;;;;;5.15;2.13;;;15.10;99.00;;;;;;5046898;28;20033;-64
2022/10/17 12:28:22;;;;;;;6.28;1.20;;;15.10;99.00;;;;;;5051640;28;20041;-64
2022/10/17 12:31:01;;;;;;;6.63;1.27;;;15.10;98.90;;;;;;5053526;28;20100;-65
2022/10/17 12:33:33;;;;;;;9.95;1.40;;;15.10;99.00;;;;;;5048311;28;20389;-64
2022/10/17 12:36:16;;;;;;;5.68;1.40;;;15.20;99.00;;;;;;5044692;28;20112;-64
2022/10/17 12:38:45;;;;;;;8.00;1.33;;;15.20;99.10;;;;;;5054063;28;20104;-63
2022/10/17 12:41:12;;;;;;;11.05;1.20;;;15.10;99.00;;;;;;5049952;28;20024;-63
2022/10/17 12:43:48;;;;;;;5.88;1.20;;;15.10;99.30;;;;;;5047865;28;20470;-63
2022/10/17 12:46:47;;;;;;;9.35;1.25;;;15.10;99.40;;;;;;5052792;28;20475;-63
2022/10/17 12:49:41;;;;;;;6.95;1.38;;;15.00;99.30;;;;;;5033663;28;20082;-63
2022/10/17 12:52:22;;;;;;;5.85;1.25;;;15.00;99.40;;;;;;5000868;28;1749920;-64
2022/10/17 12:55:00;;;;;;;4.15;1.23;;;15.00;99.50;;;;;;5068563;28;20037;-64
2022/10/17 12:57:52;;;;;;;6.03;1.02;;;14.90;99.60;;;;;;5057793;28;20017;-64
2022/10/17 13:00:28;;;;;;;3.67;0.82;;;14.90;99.90;;;;;;5059448;28;20433;-63
2022/10/17 13:03:03;;;;;;;5.55;1.30;;;14.80;99.80;;;;;;5058991;28;20486;-64
2022/10/17 13:05:35;;;;;;;4.30;1.20;;;14.70;99.90;;;;;;5049473;28;20036;-64
2022/10/17 13:08:06;;;;;;;6.43;1.30;;;14.70;99.90;;;;;;5055312;28;20044;-63
2022/10/17 13:10:38;;;;;;;6.30;1.10;;;14.70;99.90;;;;;;5052526;28;20033;-63
2022/10/17 13:13:13;;;;;;;7.53;1.88;;;14.60;99.90;;;;;;5067047;28;20036;-63
2022/10/17 13:15:46;;;;;;;8.15;1.13;;;14.60;99.90;;;;;;5054307;28;20032;-63
2022/10/17 13:18:22;;;;;;;5.32;1.20;;;14.50;99.90;;;;;;5054909;28;20047;-63
2022/10/17 13:21:03;;;;;;;4.88;1.10;;;14.40;99.90;;;;;;5055550;28;20103;-62
2022/10/17 13:23:35;;;;;;;4.63;0.88;;;14.20;99.90;;;;;;5051477;28;20057;-63